sensor_id;sensor_type;location;lat;lon;timestamp;P1;durP1;ratioP1;P2;durP2;ratioP2
35306;SDS011;21420;52.196;21.416;2023-12-14T00:01:28;59.70;;;35.50;;
35306;SDS011;21420;52.196;21.416;2023-12-14T00:03:55;53.70;;;32.30;;
35306;SDS011;21420;52.196;21.416;2023-12-14T00:06:21;55.30;;;34.40;;
35306;SDS011;21420;52.196;21.416;2023-12-14T00:08:47;57.80;;;34.60;;
35306;SDS011;21420;52.196;21.416;2023-12-14T00:11:13;56.40;;;33.10;;
35306;SDS011;21420;52.196;21.416;2023-12-14T00:13:39;57.20;;;34.30;;
35306;SDS011;21420;52.196;21.416;2023-12-14T00:16:06;53.30;;;33.30;;
35306;SDS011;21420;52.196;21.416;2023-12-14T00:18:33;52.30;;;32.50;;
35306;SDS011;21420;52.196;21.416;2023-12-14T00:20:59;52.40;;;32.80;;
35306;SDS011;21420;52.196;21.416;2023-12-14T00:23:25;57.40;;;34.10;;
35306;SDS011;21420;52.196;21.416;2023-12-14T00:25:52;56.10;;;32.70;;
35306;SDS011;21420;52.196;21.416;2023-12-14T00:28:18;56.10;;;32.50;;
35306;SDS011;21420;52.196;21.416;2023-12-14T00:30:46;52.10;;;32.30;;
35306;SDS011;21420;52.196;21.416;2023-12-14T00:33:12;50.80;;;31.40;;
35306;SDS011;21420;52.196;21.416;2023-12-14T00:35:38;52.60;;;31.40;;
35306;SDS011;21420;52.196;21.416;2023-12-14T00:38:04;53.70;;;31.70;;
35306;SDS011;21420;52.196;21.416;2023-12-14T00:40:30;53.40;;;31.00;;
35306;SDS011;21420;52.196;21.416;2023-12-14T00:42:56;49.40;;;31.00;;
35306;SDS011;21420;52.196;21.416;2023-12-14T00:45:22;50.60;;;31.50;;
35306;SDS011;21420;52.196;21.416;2023-12-14T00:47:48;51.00;;;31.40;;
35306;SDS011;21420;52.196;21.416;2023-12-14T00:50:14;52.60;;;31.90;;
35306;SDS011;21420;52.196;21.416;2023-12-14T00:52:40;54.00;;;31.70;;
35306;SDS011;21420;52.196;21.416;2023-12-14T00:55:07;48.50;;;30.60;;
35306;SDS011;21420;52.196;21.416;2023-12-14T00:57:33;48.30;;;30.30;;
35306;SDS011;21420;52.196;21.416;2023-12-14T00:59:59;48.50;;;29.30;;
35306;SDS011;21420;52.196;21.416;2023-12-14T01:02:25;43.70;;;29.50;;
35306;SDS011;21420;52.196;21.416;2023-12-14T01:04:51;44.20;;;27.70;;
35306;SDS011;21420;52.196;21.416;2023-12-14T01:07:17;43.40;;;27.50;;
35306;SDS011;21420;52.196;21.416;2023-12-14T01:09:43;44.40;;;28.10;;
35306;SDS011;21420;52.196;21.416;2023-12-14T01:12:09;43.70;;;27.50;;
35306;SDS011;21420;52.196;21.416;2023-12-14T01:14:36;42.90;;;27.10;;
35306;SDS011;21420;52.196;21.416;2023-12-14T01:17:02;48.10;;;28.10;;
35306;SDS011;21420;52.196;21.416;2023-12-14T01:19:30;45.00;;;28.90;;
35306;SDS011;21420;52.196;21.416;2023-12-14T01:21:56;47.00;;;29.30;;
35306;SDS011;21420;52.196;21.416;2023-12-14T01:24:22;55.30;;;32.40;;
35306;SDS011;21420;52.196;21.416;2023-12-14T01:26:48;51.30;;;30.80;;
35306;SDS011;21420;52.196;21.416;2023-12-14T01:29:14;51.40;;;31.10;;
35306;SDS011;21420;52.196;21.416;2023-12-14T01:31:40;50.50;;;30.10;;
35306;SDS011;21420;52.196;21.416;2023-12-14T01:34:06;56.40;;;31.30;;
35306;SDS011;21420;52.196;21.416;2023-12-14T01:36:32;54.70;;;31.40;;
35306;SDS011;21420;52.196;21.416;2023-12-14T01:38:58;55.70;;;32.70;;
35306;SDS011;21420;52.196;21.416;2023-12-14T01:41:25;57.10;;;32.20;;
35306;SDS011;21420;52.196;21.416;2023-12-14T01:43:51;56.40;;;31.80;;
35306;SDS011;21420;52.196;21.416;2023-12-14T01:46:18;52.00;;;31.60;;
35306;SDS011;21420;52.196;21.416;2023-12-14T01:48:44;54.30;;;31.40;;
35306;SDS011;21420;52.196;21.416;2023-12-14T01:51:10;54.70;;;30.50;;
35306;SDS011;21420;52.196;21.416;2023-12-14T01:53:36;50.30;;;30.00;;
35306;SDS011;21420;52.196;21.416;2023-12-14T01:56:02;46.80;;;29.40;;
35306;SDS011;21420;52.196;21.416;2023-12-14T01:58:28;48.50;;;27.90;;
35306;SDS011;21420;52.196;21.416;2023-12-14T02:03:30;50.70;;;29.60;;
35306;SDS011;21420;52.196;21.416;2023-12-14T02:05:56;45.30;;;28.20;;
35306;SDS011;21420;52.196;21.416;2023-12-14T02:08:24;51.40;;;30.50;;
35306;SDS011;21420;52.196;21.416;2023-12-14T02:10:50;48.10;;;28.50;;
35306;SDS011;21420;52.196;21.416;2023-12-14T02:13:17;48.20;;;29.20;;
35306;SDS011;21420;52.196;21.416;2023-12-14T02:15:43;47.20;;;28.20;;
35306;SDS011;21420;52.196;21.416;2023-12-14T02:18:09;46.60;;;26.60;;
35306;SDS011;21420;52.196;21.416;2023-12-14T02:20:35;45.40;;;28.00;;
35306;SDS011;21420;52.196;21.416;2023-12-14T02:23:01;46.50;;;27.80;;
35306;SDS011;21420;52.196;21.416;2023-12-14T02:25:27;47.80;;;28.00;;
35306;SDS011;21420;52.196;21.416;2023-12-14T02:27:54;54.00;;;29.30;;
35306;SDS011;21420;52.196;21.416;2023-12-14T02:30:20;44.30;;;25.30;;
35306;SDS011;21420;52.196;21.416;2023-12-14T02:32:46;45.60;;;27.00;;
35306;SDS011;21420;52.196;21.416;2023-12-14T02:35:12;42.90;;;27.10;;
35306;SDS011;21420;52.196;21.416;2023-12-14T02:37:38;42.60;;;26.40;;
35306;SDS011;21420;52.196;21.416;2023-12-14T02:40:06;44.00;;;25.60;;
35306;SDS011;21420;52.196;21.416;2023-12-14T02:42:33;38.90;;;24.50;;
35306;SDS011;21420;52.196;21.416;2023-12-14T02:45:00;37.40;;;23.70;;
35306;SDS011;21420;52.196;21.416;2023-12-14T02:47:28;42.80;;;25.40;;
35306;SDS011;21420;52.196;21.416;2023-12-14T02:49:55;37.20;;;23.90;;
35306;SDS011;21420;52.196;21.416;2023-12-14T02:52:21;38.60;;;23.20;;
35306;SDS011;21420;52.196;21.416;2023-12-14T02:54:48;37.40;;;23.90;;
35306;SDS011;21420;52.196;21.416;2023-12-14T02:57:14;39.00;;;25.00;;
35306;SDS011;21420;52.196;21.416;2023-12-14T02:59:40;39.80;;;25.20;;
35306;SDS011;21420;52.196;21.416;2023-12-14T03:02:06;42.70;;;25.20;;
35306;SDS011;21420;52.196;21.416;2023-12-14T03:04:32;36.30;;;22.90;;
35306;SDS011;21420;52.196;21.416;2023-12-14T03:06:58;36.70;;;24.30;;
35306;SDS011;21420;52.196;21.416;2023-12-14T03:09:28;37.00;;;23.30;;
35306;SDS011;21420;52.196;21.416;2023-12-14T03:11:55;38.50;;;23.80;;
35306;SDS011;21420;52.196;21.416;2023-12-14T03:14:22;38.00;;;23.70;;
35306;SDS011;21420;52.196;21.416;2023-12-14T03:16:54;39.50;;;24.00;;
35306;SDS011;21420;52.196;21.416;2023-12-14T03:19:20;34.50;;;23.80;;
35306;SDS011;21420;52.196;21.416;2023-12-14T03:21:46;34.30;;;24.10;;
35306;SDS011;21420;52.196;21.416;2023-12-14T03:24:12;38.50;;;24.20;;
35306;SDS011;21420;52.196;21.416;2023-12-14T03:26:39;38.40;;;23.90;;
35306;SDS011;21420;52.196;21.416;2023-12-14T03:29:05;36.90;;;23.80;;
35306;SDS011;21420;52.196;21.416;2023-12-14T03:31:31;38.10;;;24.10;;
35306;SDS011;21420;52.196;21.416;2023-12-14T03:33:57;41.10;;;24.50;;
35306;SDS011;21420;52.196;21.416;2023-12-14T03:36:23;40.10;;;25.50;;
35306;SDS011;21420;52.196;21.416;2023-12-14T03:38:52;45.40;;;25.80;;
35306;SDS011;21420;52.196;21.416;2023-12-14T03:41:18;40.80;;;23.80;;
35306;SDS011;21420;52.196;21.416;2023-12-14T03:43:44;37.30;;;23.70;;
35306;SDS011;21420;52.196;21.416;2023-12-14T03:46:10;40.80;;;24.20;;
35306;SDS011;21420;52.196;21.416;2023-12-14T03:48:36;35.10;;;22.40;;
35306;SDS011;21420;52.196;21.416;2023-12-14T03:51:03;34.00;;;22.20;;
35306;SDS011;21420;52.196;21.416;2023-12-14T03:53:30;33.50;;;21.10;;
35306;SDS011;21420;52.196;21.416;2023-12-14T03:55:57;32.80;;;21.50;;
35306;SDS011;21420;52.196;21.416;2023-12-14T03:58:24;34.00;;;21.20;;
35306;SDS011;21420;52.196;21.416;2023-12-14T04:00:50;37.10;;;22.60;;
35306;SDS011;21420;52.196;21.416;2023-12-14T04:03:16;31.60;;;19.70;;
35306;SDS011;21420;52.196;21.416;2023-12-14T04:05:42;31.50;;;20.30;;
35306;SDS011;21420;52.196;21.416;2023-12-14T04:08:10;29.80;;;20.10;;
35306;SDS011;21420;52.196;21.416;2023-12-14T04:10:36;34.30;;;22.70;;
35306;SDS011;21420;52.196;21.416;2023-12-14T04:13:02;33.40;;;21.80;;
35306;SDS011;21420;52.196;21.416;2023-12-14T04:15:28;35.40;;;22.30;;
35306;SDS011;21420;52.196;21.416;2023-12-14T04:17:54;42.70;;;24.20;;
35306;SDS011;21420;52.196;21.416;2023-12-14T04:20:24;42.40;;;24.90;;
35306;SDS011;21420;52.196;21.416;2023-12-14T04:22:50;38.40;;;22.20;;
35306;SDS011;21420;52.196;21.416;2023-12-14T04:25:16;39.70;;;22.80;;
35306;SDS011;21420;52.196;21.416;2023-12-14T04:27:42;47.50;;;24.90;;
35306;SDS011;21420;52.196;21.416;2023-12-14T04:30:08;40.70;;;25.20;;
35306;SDS011;21420;52.196;21.416;2023-12-14T04:32:38;39.30;;;24.70;;
35306;SDS011;21420;52.196;21.416;2023-12-14T04:35:04;43.20;;;27.00;;
35306;SDS011;21420;52.196;21.416;2023-12-14T04:37:31;43.90;;;27.50;;
35306;SDS011;21420;52.196;21.416;2023-12-14T04:39:58;42.80;;;25.60;;
35306;SDS011;21420;52.196;21.416;2023-12-14T04:42:24;44.20;;;27.50;;
35306;SDS011;21420;52.196;21.416;2023-12-14T04:44:50;39.20;;;24.40;;
35306;SDS011;21420;52.196;21.416;2023-12-14T04:47:16;35.60;;;22.60;;
35306;SDS011;21420;52.196;21.416;2023-12-14T04:49:42;43.80;;;24.50;;
35306;SDS011;21420;52.196;21.416;2023-12-14T04:52:08;37.50;;;22.40;;
35306;SDS011;21420;52.196;21.416;2023-12-14T04:54:34;37.90;;;22.80;;
35306;SDS011;21420;52.196;21.416;2023-12-14T04:57:04;32.00;;;20.60;;
35306;SDS011;21420;52.196;21.416;2023-12-14T04:59:30;32.10;;;20.00;;
35306;SDS011;21420;52.196;21.416;2023-12-14T05:01:56;34.10;;;19.80;;
35306;SDS011;21420;52.196;21.416;2023-12-14T05:04:22;28.30;;;18.40;;
35306;SDS011;21420;52.196;21.416;2023-12-14T05:06:48;30.40;;;18.80;;
35306;SDS011;21420;52.196;21.416;2023-12-14T05:09:14;29.70;;;19.50;;
35306;SDS011;21420;52.196;21.416;2023-12-14T05:11:42;30.60;;;18.30;;
35306;SDS011;21420;52.196;21.416;2023-12-14T05:14:09;31.80;;;19.00;;
35306;SDS011;21420;52.196;21.416;2023-12-14T05:16:35;33.10;;;20.20;;
35306;SDS011;21420;52.196;21.416;2023-12-14T05:19:01;33.10;;;20.40;;
35306;SDS011;21420;52.196;21.416;2023-12-14T05:21:28;35.80;;;21.40;;
35306;SDS011;21420;52.196;21.416;2023-12-14T05:23:54;36.40;;;20.30;;
35306;SDS011;21420;52.196;21.416;2023-12-14T05:26:20;31.60;;;20.00;;
35306;SDS011;21420;52.196;21.416;2023-12-14T05:28:46;33.80;;;20.10;;
35306;SDS011;21420;52.196;21.416;2023-12-14T05:31:12;32.10;;;20.00;;
35306;SDS011;21420;52.196;21.416;2023-12-14T05:33:39;36.00;;;21.40;;
35306;SDS011;21420;52.196;21.416;2023-12-14T05:36:05;40.70;;;22.40;;
35306;SDS011;21420;52.196;21.416;2023-12-14T05:38:38;34.90;;;20.60;;
35306;SDS011;21420;52.196;21.416;2023-12-14T05:41:04;34.80;;;20.10;;
35306;SDS011;21420;52.196;21.416;2023-12-14T05:43:31;38.20;;;22.60;;
35306;SDS011;21420;52.196;21.416;2023-12-14T05:45:57;37.20;;;21.10;;
35306;SDS011;21420;52.196;21.416;2023-12-14T05:48:23;36.30;;;20.90;;
35306;SDS011;21420;52.196;21.416;2023-12-14T05:50:51;38.40;;;21.80;;
35306;SDS011;21420;52.196;21.416;2023-12-14T05:53:17;39.60;;;21.70;;
35306;SDS011;21420;52.196;21.416;2023-12-14T05:55:43;36.10;;;21.00;;
35306;SDS011;21420;52.196;21.416;2023-12-14T05:58:09;39.20;;;21.60;;
35306;SDS011;21420;52.196;21.416;2023-12-14T06:00:36;39.40;;;21.60;;
35306;SDS011;21420;52.196;21.416;2023-12-14T06:03:02;36.00;;;21.10;;
35306;SDS011;21420;52.196;21.416;2023-12-14T06:05:28;39.70;;;22.70;;
35306;SDS011;21420;52.196;21.416;2023-12-14T06:07:55;40.30;;;22.20;;
35306;SDS011;21420;52.196;21.416;2023-12-14T06:10:21;39.20;;;23.40;;
35306;SDS011;21420;52.196;21.416;2023-12-14T06:12:47;42.30;;;23.30;;
35306;SDS011;21420;52.196;21.416;2023-12-14T06:15:13;39.30;;;23.70;;
35306;SDS011;21420;52.196;21.416;2023-12-14T06:17:39;44.90;;;25.70;;
35306;SDS011;21420;52.196;21.416;2023-12-14T06:20:08;39.60;;;24.40;;
35306;SDS011;21420;52.196;21.416;2023-12-14T06:22:36;37.50;;;21.00;;
35306;SDS011;21420;52.196;21.416;2023-12-14T06:25:03;34.50;;;20.20;;
35306;SDS011;21420;52.196;21.416;2023-12-14T06:27:29;34.70;;;20.50;;
35306;SDS011;21420;52.196;21.416;2023-12-14T06:29:55;37.90;;;20.10;;
35306;SDS011;21420;52.196;21.416;2023-12-14T06:32:22;37.60;;;21.70;;
35306;SDS011;21420;52.196;21.416;2023-12-14T06:34:48;38.00;;;21.90;;
35306;SDS011;21420;52.196;21.416;2023-12-14T06:37:15;37.20;;;20.50;;
35306;SDS011;21420;52.196;21.416;2023-12-14T06:39:42;35.10;;;19.60;;
35306;SDS011;21420;52.196;21.416;2023-12-14T06:42:08;31.60;;;18.90;;
35306;SDS011;21420;52.196;21.416;2023-12-14T06:44:34;31.70;;;18.30;;
35306;SDS011;21420;52.196;21.416;2023-12-14T06:47:03;33.80;;;18.10;;
35306;SDS011;21420;52.196;21.416;2023-12-14T06:49:29;32.30;;;18.20;;
35306;SDS011;21420;52.196;21.416;2023-12-14T06:51:55;31.40;;;17.40;;
35306;SDS011;21420;52.196;21.416;2023-12-14T06:54:21;31.30;;;17.70;;
35306;SDS011;21420;52.196;21.416;2023-12-14T06:56:47;35.50;;;17.90;;
35306;SDS011;21420;52.196;21.416;2023-12-14T06:59:13;28.20;;;16.50;;
35306;SDS011;21420;52.196;21.416;2023-12-14T07:01:40;28.30;;;17.00;;
35306;SDS011;21420;52.196;21.416;2023-12-14T07:04:06;28.60;;;17.00;;
35306;SDS011;21420;52.196;21.416;2023-12-14T07:06:33;29.90;;;16.60;;
35306;SDS011;21420;52.196;21.416;2023-12-14T07:09:01;28.80;;;15.30;;
35306;SDS011;21420;52.196;21.416;2023-12-14T07:11:27;26.10;;;16.00;;
35306;SDS011;21420;52.196;21.416;2023-12-14T07:13:53;29.30;;;16.10;;
35306;SDS011;21420;52.196;21.416;2023-12-14T07:16:19;29.10;;;17.10;;
35306;SDS011;21420;52.196;21.416;2023-12-14T07:18:45;24.90;;;16.50;;
35306;SDS011;21420;52.196;21.416;2023-12-14T07:21:12;31.00;;;18.80;;
35306;SDS011;21420;52.196;21.416;2023-12-14T07:23:39;39.60;;;23.60;;
35306;SDS011;21420;52.196;21.416;2023-12-14T07:26:05;38.50;;;23.00;;
35306;SDS011;21420;52.196;21.416;2023-12-14T07:28:33;33.20;;;18.80;;
35306;SDS011;21420;52.196;21.416;2023-12-14T07:30:59;34.80;;;20.60;;
35306;SDS011;21420;52.196;21.416;2023-12-14T07:33:26;37.80;;;20.60;;
35306;SDS011;21420;52.196;21.416;2023-12-14T07:35:52;41.10;;;22.30;;
35306;SDS011;21420;52.196;21.416;2023-12-14T07:38:18;41.90;;;21.50;;
35306;SDS011;21420;52.196;21.416;2023-12-14T07:40:44;41.10;;;21.70;;
35306;SDS011;21420;52.196;21.416;2023-12-14T07:43:12;41.20;;;21.80;;
35306;SDS011;21420;52.196;21.416;2023-12-14T07:45:38;41.70;;;21.80;;
35306;SDS011;21420;52.196;21.416;2023-12-14T07:48:04;38.10;;;20.50;;
35306;SDS011;21420;52.196;21.416;2023-12-14T07:50:31;37.20;;;20.10;;
35306;SDS011;21420;52.196;21.416;2023-12-14T07:52:57;40.20;;;20.50;;
35306;SDS011;21420;52.196;21.416;2023-12-14T07:55:23;36.20;;;20.20;;
35306;SDS011;21420;52.196;21.416;2023-12-14T07:57:49;41.60;;;21.50;;
35306;SDS011;21420;52.196;21.416;2023-12-14T08:00:16;38.20;;;20.30;;
35306;SDS011;21420;52.196;21.416;2023-12-14T08:02:42;35.50;;;19.80;;
35306;SDS011;21420;52.196;21.416;2023-12-14T08:05:08;37.70;;;18.80;;
35306;SDS011;21420;52.196;21.416;2023-12-14T08:07:37;39.40;;;20.30;;
35306;SDS011;21420;52.196;21.416;2023-12-14T08:10:04;40.60;;;21.50;;
35306;SDS011;21420;52.196;21.416;2023-12-14T08:12:31;35.90;;;20.00;;
35306;SDS011;21420;52.196;21.416;2023-12-14T08:14:59;35.20;;;19.80;;
35306;SDS011;21420;52.196;21.416;2023-12-14T08:17:25;32.00;;;18.60;;
35306;SDS011;21420;52.196;21.416;2023-12-14T08:19:52;32.30;;;17.80;;
35306;SDS011;21420;52.196;21.416;2023-12-14T08:22:18;31.10;;;18.30;;
35306;SDS011;21420;52.196;21.416;2023-12-14T08:24:47;36.30;;;18.60;;
35306;SDS011;21420;52.196;21.416;2023-12-14T08:27:14;35.90;;;19.40;;
35306;SDS011;21420;52.196;21.416;2023-12-14T08:29:40;28.90;;;16.30;;
35306;SDS011;21420;52.196;21.416;2023-12-14T08:32:06;33.90;;;18.20;;
35306;SDS011;21420;52.196;21.416;2023-12-14T08:34:32;29.20;;;16.80;;
35306;SDS011;21420;52.196;21.416;2023-12-14T08:37:00;29.70;;;17.80;;
35306;SDS011;21420;52.196;21.416;2023-12-14T08:39:27;31.50;;;19.40;;
35306;SDS011;21420;52.196;21.416;2023-12-14T08:41:53;31.40;;;19.10;;
35306;SDS011;21420;52.196;21.416;2023-12-14T08:44:20;30.60;;;19.00;;
35306;SDS011;21420;52.196;21.416;2023-12-14T08:46:46;29.30;;;17.60;;
35306;SDS011;21420;52.196;21.416;2023-12-14T08:49:12;28.80;;;17.40;;
35306;SDS011;21420;52.196;21.416;2023-12-14T08:51:41;27.50;;;16.50;;
35306;SDS011;21420;52.196;21.416;2023-12-14T08:54:07;30.50;;;18.20;;
35306;SDS011;21420;52.196;21.416;2023-12-14T08:56:34;31.40;;;18.00;;
35306;SDS011;21420;52.196;21.416;2023-12-14T08:59:00;30.60;;;19.20;;
35306;SDS011;21420;52.196;21.416;2023-12-14T09:01:29;31.50;;;18.70;;
35306;SDS011;21420;52.196;21.416;2023-12-14T09:03:55;38.00;;;20.00;;
35306;SDS011;21420;52.196;21.416;2023-12-14T09:06:22;35.70;;;18.60;;
35306;SDS011;21420;52.196;21.416;2023-12-14T09:08:48;31.40;;;18.80;;
35306;SDS011;21420;52.196;21.416;2023-12-14T09:11:14;38.00;;;20.50;;
35306;SDS011;21420;52.196;21.416;2023-12-14T09:13:41;34.60;;;19.40;;
35306;SDS011;21420;52.196;21.416;2023-12-14T09:16:09;30.80;;;17.60;;
35306;SDS011;21420;52.196;21.416;2023-12-14T09:18:36;38.30;;;19.60;;
35306;SDS011;21420;52.196;21.416;2023-12-14T09:21:02;42.40;;;22.90;;
35306;SDS011;21420;52.196;21.416;2023-12-14T09:23:29;45.30;;;22.40;;
35306;SDS011;21420;52.196;21.416;2023-12-14T09:25:56;36.50;;;20.40;;
35306;SDS011;21420;52.196;21.416;2023-12-14T09:28:22;34.90;;;19.30;;
35306;SDS011;21420;52.196;21.416;2023-12-14T09:30:48;25.10;;;15.70;;
35306;SDS011;21420;52.196;21.416;2023-12-14T09:33:14;27.90;;;16.60;;
35306;SDS011;21420;52.196;21.416;2023-12-14T09:35:40;30.10;;;18.40;;
35306;SDS011;21420;52.196;21.416;2023-12-14T09:38:08;28.80;;;18.00;;
35306;SDS011;21420;52.196;21.416;2023-12-14T09:40:34;32.00;;;18.30;;
35306;SDS011;21420;52.196;21.416;2023-12-14T09:43:00;32.20;;;18.50;;
35306;SDS011;21420;52.196;21.416;2023-12-14T09:45:27;46.10;;;22.00;;
35306;SDS011;21420;52.196;21.416;2023-12-14T09:47:55;39.40;;;21.50;;
35306;SDS011;21420;52.196;21.416;2023-12-14T09:50:24;33.00;;;18.30;;
35306;SDS011;21420;52.196;21.416;2023-12-14T09:52:51;27.40;;;16.70;;
35306;SDS011;21420;52.196;21.416;2023-12-14T09:55:17;25.60;;;15.90;;
35306;SDS011;21420;52.196;21.416;2023-12-14T09:57:43;25.10;;;15.60;;
35306;SDS011;21420;52.196;21.416;2023-12-14T10:00:09;23.80;;;15.40;;
35306;SDS011;21420;52.196;21.416;2023-12-14T10:02:36;27.80;;;16.80;;
35306;SDS011;21420;52.196;21.416;2023-12-14T10:05:02;23.20;;;15.50;;
35306;SDS011;21420;52.196;21.416;2023-12-14T10:07:30;23.50;;;15.10;;
35306;SDS011;21420;52.196;21.416;2023-12-14T10:10:09;20.10;;;13.00;;
35306;SDS011;21420;52.196;21.416;2023-12-14T10:15:19;17.20;;;11.40;;
35306;SDS011;21420;52.196;21.416;2023-12-14T10:17:45;16.80;;;11.70;;
35306;SDS011;21420;52.196;21.416;2023-12-14T10:20:21;17.60;;;12.40;;
35306;SDS011;21420;52.196;21.416;2023-12-14T10:22:49;18.40;;;12.20;;
35306;SDS011;21420;52.196;21.416;2023-12-14T10:25:18;13.40;;;9.80;;
35306;SDS011;21420;52.196;21.416;2023-12-14T10:27:46;25.70;;;16.90;;
35306;SDS011;21420;52.196;21.416;2023-12-14T10:30:13;20.50;;;13.70;;
35306;SDS011;21420;52.196;21.416;2023-12-14T10:32:41;21.60;;;12.80;;
35306;SDS011;21420;52.196;21.416;2023-12-14T10:35:07;19.60;;;13.40;;
35306;SDS011;21420;52.196;21.416;2023-12-14T10:37:35;18.60;;;12.80;;
35306;SDS011;21420;52.196;21.416;2023-12-14T10:42:36;18.40;;;12.80;;
35306;SDS011;21420;52.196;21.416;2023-12-14T10:45:03;17.90;;;12.40;;
35306;SDS011;21420;52.196;21.416;2023-12-14T10:47:44;16.80;;;11.90;;
35306;SDS011;21420;52.196;21.416;2023-12-14T10:50:14;21.80;;;13.50;;
35306;SDS011;21420;52.196;21.416;2023-12-14T10:52:41;22.40;;;14.30;;
35306;SDS011;21420;52.196;21.416;2023-12-14T10:55:09;20.70;;;14.40;;
35306;SDS011;21420;52.196;21.416;2023-12-14T10:57:41;16.70;;;12.10;;
35306;SDS011;21420;52.196;21.416;2023-12-14T11:00:10;18.50;;;12.00;;
35306;SDS011;21420;52.196;21.416;2023-12-14T11:02:39;17.90;;;11.90;;
35306;SDS011;21420;52.196;21.416;2023-12-14T11:05:12;20.70;;;13.70;;
35306;SDS011;21420;52.196;21.416;2023-12-14T11:08:01;23.30;;;14.40;;
35306;SDS011;21420;52.196;21.416;2023-12-14T11:10:37;26.40;;;16.10;;
35306;SDS011;21420;52.196;21.416;2023-12-14T11:13:05;33.00;;;18.80;;
35306;SDS011;21420;52.196;21.416;2023-12-14T11:15:35;34.00;;;19.30;;
35306;SDS011;21420;52.196;21.416;2023-12-14T11:23:16;21.60;;;13.30;;
35306;SDS011;21420;52.196;21.416;2023-12-14T11:26:05;35.40;;;20.10;;
35306;SDS011;21420;52.196;21.416;2023-12-14T11:28:33;24.70;;;16.00;;
35306;SDS011;21420;52.196;21.416;2023-12-14T11:31:02;29.00;;;18.30;;
35306;SDS011;21420;52.196;21.416;2023-12-14T11:33:32;25.40;;;16.60;;
35306;SDS011;21420;52.196;21.416;2023-12-14T11:35:59;22.00;;;14.70;;
35306;SDS011;21420;52.196;21.416;2023-12-14T11:38:27;22.30;;;15.60;;
35306;SDS011;21420;52.196;21.416;2023-12-14T11:40:53;26.00;;;14.70;;
35306;SDS011;21420;52.196;21.416;2023-12-14T11:43:19;21.80;;;14.20;;
35306;SDS011;21420;52.196;21.416;2023-12-14T11:45:50;21.40;;;13.80;;
35306;SDS011;21420;52.196;21.416;2023-12-14T11:48:17;22.40;;;15.20;;
35306;SDS011;21420;52.196;21.416;2023-12-14T11:50:43;23.10;;;14.40;;
35306;SDS011;21420;52.196;21.416;2023-12-14T11:53:10;22.60;;;14.90;;
35306;SDS011;21420;52.196;21.416;2023-12-14T11:55:38;23.10;;;16.40;;
35306;SDS011;21420;52.196;21.416;2023-12-14T11:58:06;21.10;;;15.40;;
35306;SDS011;21420;52.196;21.416;2023-12-14T12:00:33;24.40;;;15.70;;
35306;SDS011;21420;52.196;21.416;2023-12-14T12:03:13;20.40;;;16.00;;
35306;SDS011;21420;52.196;21.416;2023-12-14T12:05:46;22.90;;;15.60;;
35306;SDS011;21420;52.196;21.416;2023-12-14T12:08:14;19.90;;;14.50;;
35306;SDS011;21420;52.196;21.416;2023-12-14T12:10:42;21.00;;;14.60;;
35306;SDS011;21420;52.196;21.416;2023-12-14T12:15:39;20.10;;;13.50;;
35306;SDS011;21420;52.196;21.416;2023-12-14T12:18:07;23.20;;;15.90;;
35306;SDS011;21420;52.196;21.416;2023-12-14T12:20:35;20.10;;;14.30;;
35306;SDS011;21420;52.196;21.416;2023-12-14T12:23:02;21.70;;;14.20;;
35306;SDS011;21420;52.196;21.416;2023-12-14T12:25:30;23.40;;;16.70;;
35306;SDS011;21420;52.196;21.416;2023-12-14T12:27:59;24.30;;;17.70;;
35306;SDS011;21420;52.196;21.416;2023-12-14T12:30:27;23.30;;;16.70;;
35306;SDS011;21420;52.196;21.416;2023-12-14T12:32:54;25.70;;;15.40;;
35306;SDS011;21420;52.196;21.416;2023-12-14T12:35:22;25.00;;;16.20;;
35306;SDS011;21420;52.196;21.416;2023-12-14T12:37:49;30.70;;;19.70;;
35306;SDS011;21420;52.196;21.416;2023-12-14T12:42:50;30.10;;;20.20;;
35306;SDS011;21420;52.196;21.416;2023-12-14T12:45:18;25.30;;;17.70;;
35306;SDS011;21420;52.196;21.416;2023-12-14T12:47:47;28.10;;;20.20;;
35306;SDS011;21420;52.196;21.416;2023-12-14T12:50:14;26.40;;;18.40;;
35306;SDS011;21420;52.196;21.416;2023-12-14T12:52:40;27.90;;;19.30;;
35306;SDS011;21420;52.196;21.416;2023-12-14T12:55:08;30.60;;;21.40;;
35306;SDS011;21420;52.196;21.416;2023-12-14T12:57:38;31.90;;;21.20;;
35306;SDS011;21420;52.196;21.416;2023-12-14T13:00:04;24.70;;;17.80;;
35306;SDS011;21420;52.196;21.416;2023-12-14T13:02:33;32.50;;;19.80;;
35306;SDS011;21420;52.196;21.416;2023-12-14T13:05:00;29.90;;;19.20;;
35306;SDS011;21420;52.196;21.416;2023-12-14T13:07:26;28.80;;;19.90;;
35306;SDS011;21420;52.196;21.416;2023-12-14T13:09:54;31.70;;;20.30;;
35306;SDS011;21420;52.196;21.416;2023-12-14T13:12:21;34.00;;;21.50;;
35306;SDS011;21420;52.196;21.416;2023-12-14T13:14:47;33.40;;;21.00;;
35306;SDS011;21420;52.196;21.416;2023-12-14T13:17:13;31.80;;;20.10;;
35306;SDS011;21420;52.196;21.416;2023-12-14T13:19:42;27.50;;;18.40;;
35306;SDS011;21420;52.196;21.416;2023-12-14T13:22:08;29.70;;;19.00;;
35306;SDS011;21420;52.196;21.416;2023-12-14T13:24:37;24.10;;;16.80;;
35306;SDS011;21420;52.196;21.416;2023-12-14T13:27:03;25.60;;;16.70;;
35306;SDS011;21420;52.196;21.416;2023-12-14T13:29:30;27.50;;;18.40;;
35306;SDS011;21420;52.196;21.416;2023-12-14T13:31:58;31.40;;;21.90;;
35306;SDS011;21420;52.196;21.416;2023-12-14T13:34:27;37.20;;;22.60;;
35306;SDS011;21420;52.196;21.416;2023-12-14T13:36:54;26.90;;;18.30;;
35306;SDS011;21420;52.196;21.416;2023-12-14T13:39:21;29.50;;;18.20;;
35306;SDS011;21420;52.196;21.416;2023-12-14T13:41:47;23.80;;;16.10;;
35306;SDS011;21420;52.196;21.416;2023-12-14T13:44:16;30.00;;;18.90;;
35306;SDS011;21420;52.196;21.416;2023-12-14T13:46:43;24.70;;;17.10;;
35306;SDS011;21420;52.196;21.416;2023-12-14T13:49:09;30.10;;;19.40;;
35306;SDS011;21420;52.196;21.416;2023-12-14T13:51:35;33.60;;;20.20;;
35306;SDS011;21420;52.196;21.416;2023-12-14T13:54:02;32.90;;;21.20;;
35306;SDS011;21420;52.196;21.416;2023-12-14T13:56:28;32.50;;;19.80;;
35306;SDS011;21420;52.196;21.416;2023-12-14T13:58:54;31.00;;;19.90;;
35306;SDS011;21420;52.196;21.416;2023-12-14T14:01:20;26.20;;;18.20;;
35306;SDS011;21420;52.196;21.416;2023-12-14T14:03:47;27.00;;;18.00;;
35306;SDS011;21420;52.196;21.416;2023-12-14T14:06:13;26.40;;;16.80;;
35306;SDS011;21420;52.196;21.416;2023-12-14T14:08:39;30.20;;;19.00;;
35306;SDS011;21420;52.196;21.416;2023-12-14T14:11:06;29.00;;;18.60;;
35306;SDS011;21420;52.196;21.416;2023-12-14T14:13:36;27.20;;;17.90;;
35306;SDS011;21420;52.196;21.416;2023-12-14T14:16:02;59.20;;;36.50;;
35306;SDS011;21420;52.196;21.416;2023-12-14T14:18:30;61.10;;;38.00;;
35306;SDS011;21420;52.196;21.416;2023-12-14T14:20:57;32.70;;;21.30;;
35306;SDS011;21420;52.196;21.416;2023-12-14T14:23:23;28.60;;;19.40;;
35306;SDS011;21420;52.196;21.416;2023-12-14T14:25:50;27.10;;;18.40;;